カーブル の空港の天気 - METARとTAF

カーブル国際空港 ( OAKB / KBL ) - アフガニスタン カーブル
飛行場実況気象(Metar)
観測時間04/21 19:20 AFT (04/21 14:50 UTC)
風向・風速不定 1m/s
視程10km以上
天気現象
全天の4割程度の雲 雲底高度 3050m
全天の8割程度の雲 雲底高度 5490m
気温20℃
湿度32%
気圧1015hPa
METAROAKB 211450Z VRB02KT 9999 SCT100 BKN180 20/03 Q1015 NOSIG RMK A2999 LTG DSNT SW AND NW BLU BLU
過去の天気等 Google飛行場航空写真 Wunderground天気予報

過去48時間のMETAR

飛行場予報(TAF)
発表時間: 4/21 15:35 AFT (4/21 11:05 UTC)
予報対象時間: 21日16時 AFT ~ 22日16時 AFT
風向・風速不定 1m/s
視程10km以上
全天の4割程度の雲 雲底高度 3050m
全天の8割程度の雲 雲底高度 6100m
21日16時 AFT ~ 21日20時 AFT に一時的に
風向・風速不定 8m/s 瞬間風速 13m/s
視程5000m
天気現象弱い雷雨
全天の4割程度の積乱雲 雲底高度 1520m
全天の8割程度の雲 雲底高度 2440m
21日23時 AFT ~ 22日1時 AFT に徐々に
少しの雲 雲底高度 3050m
22日5時 AFT から 確率 30% で
視程4000m
天気現象もや
22日11時 AFT ~ 22日13時 AFT に徐々に
全天の4割程度の雲 雲底高度 2440m
TAF OAKB 211105Z 2112/2212 VRB02KT 9999 SCT100 BKN200
TEMPO 2112/2116 VRB15G25KT 5000 -TSRA SCT050CB BKN080
BECMG 2119/2121 FEW100
PROB30 2201/2204 4000 BR
BECMG 2207/2209 SCT080